sensor_id;sensor_type;location;lat;lon;timestamp;pressure;altitude;pressure_sealevel;temperature;humidity
67430;BME280;54298;52.076;5.264;2023-05-21T00:00:35;101882.0;;;16.95;57.46
67430;BME280;54298;52.076;5.264;2023-05-21T00:02:11;101882.0;;;16.93;57.68
67430;BME280;54298;52.076;5.264;2023-05-21T00:05:23;101874.0;;;17.03;57.44
67430;BME280;54298;52.076;5.264;2023-05-21T00:06:59;101874.0;;;16.95;57.48
67430;BME280;54298;52.076;5.264;2023-05-21T00:08:36;101876.0;;;16.96;57.62
67430;BME280;54298;52.076;5.264;2023-05-21T00:11:49;101878.0;;;17.02;57.54
67430;BME280;54298;52.076;5.264;2023-05-21T00:13:25;101880.0;;;16.9;57.66
67430;BME280;54298;52.076;5.264;2023-05-21T00:15:02;101880.0;;;17.0;57.61
67430;BME280;54298;52.076;5.264;2023-05-21T00:16:39;101873.0;;;16.98;57.51
67430;BME280;54298;52.076;5.264;2023-05-21T00:19:51;101880.0;;;16.98;57.62
67430;BME280;54298;52.076;5.264;2023-05-21T00:21:27;101873.0;;;17.05;57.73
67430;BME280;54298;52.076;5.264;2023-05-21T00:26:16;101870.0;;;17.02;57.66
67430;BME280;54298;52.076;5.264;2023-05-21T00:27:53;101867.0;;;17.03;57.42
67430;BME280;54298;52.076;5.264;2023-05-21T00:29:29;101863.0;;;16.88;57.66
67430;BME280;54298;52.076;5.264;2023-05-21T00:32:42;101865.0;;;16.78;58.38
67430;BME280;54298;52.076;5.264;2023-05-21T00:34:18;101861.0;;;16.96;57.65
67430;BME280;54298;52.076;5.264;2023-05-21T00:35:54;101861.0;;;16.84;58.51
67430;BME280;54298;52.076;5.264;2023-05-21T00:37:30;101858.0;;;16.93;58.11
67430;BME280;54298;52.076;5.264;2023-05-21T00:40:43;101858.0;;;16.97;57.99
67430;BME280;54298;52.076;5.264;2023-05-21T00:42:19;101855.0;;;16.93;58.26
67430;BME280;54298;52.076;5.264;2023-05-21T00:43:55;101856.0;;;16.78;58.38
67430;BME280;54298;52.076;5.264;2023-05-21T00:47:08;101851.0;;;16.93;58.12
67430;BME280;54298;52.076;5.264;2023-05-21T00:48:45;101855.0;;;16.98;58.39
67430;BME280;54298;52.076;5.264;2023-05-21T00:50:22;101849.0;;;17.02;58.21
67430;BME280;54298;52.076;5.264;2023-05-21T00:53:34;101844.0;;;16.54;59.1
67430;BME280;54298;52.076;5.264;2023-05-21T00:55:11;101847.0;;;16.84;58.47
67430;BME280;54298;52.076;5.264;2023-05-21T00:56:48;101842.0;;;16.95;58.3
67430;BME280;54298;52.076;5.264;2023-05-21T01:01:42;101839.0;;;16.78;58.61
67430;BME280;54298;52.076;5.264;2023-05-21T01:03:20;101840.0;;;16.89;58.4
67430;BME280;54298;52.076;5.264;2023-05-21T01:04:56;101835.0;;;16.9;58.45
67430;BME280;54298;52.076;5.264;2023-05-21T01:08:09;101835.0;;;16.89;58.73
67430;BME280;54298;52.076;5.264;2023-05-21T01:09:46;101839.0;;;16.95;58.97
67430;BME280;54298;52.076;5.264;2023-05-21T01:11:31;101838.0;;;16.86;58.66
67430;BME280;54298;52.076;5.264;2023-05-21T01:13:12;101833.0;;;16.88;58.92
67430;BME280;54298;52.076;5.264;2023-05-21T01:16:27;101832.0;;;16.81;58.95
67430;BME280;54298;52.076;5.264;2023-05-21T01:18:03;101834.0;;;16.89;58.76
67430;BME280;54298;52.076;5.264;2023-05-21T01:19:39;101831.0;;;16.98;58.6
67430;BME280;54298;52.076;5.264;2023-05-21T01:22:56;101827.0;;;16.8;58.89
67430;BME280;54298;52.076;5.264;2023-05-21T01:24:33;101830.0;;;16.87;58.92
67430;BME280;54298;52.076;5.264;2023-05-21T01:26:10;101826.0;;;16.78;59.25
67430;BME280;54298;52.076;5.264;2023-05-21T01:27:46;101827.0;;;16.84;59.17
67430;BME280;54298;52.076;5.264;2023-05-21T01:31:15;101825.0;;;16.86;59.1
67430;BME280;54298;52.076;5.264;2023-05-21T01:33:00;101824.0;;;16.77;59.58
67430;BME280;54298;52.076;5.264;2023-05-21T01:34:47;101824.0;;;16.73;59.54
67430;BME280;54298;52.076;5.264;2023-05-21T01:36:28;101821.0;;;16.89;59.14
67430;BME280;54298;52.076;5.264;2023-05-21T01:38:11;101821.0;;;16.91;59.3
67430;BME280;54298;52.076;5.264;2023-05-21T01:41:33;101821.0;;;16.93;59.32
67430;BME280;54298;52.076;5.264;2023-05-21T01:43:13;101820.0;;;16.84;59.37
67430;BME280;54298;52.076;5.264;2023-05-21T01:44:51;101823.0;;;16.91;59.45
67430;BME280;54298;52.076;5.264;2023-05-21T01:46:32;101827.0;;;16.93;59.38
67430;BME280;54298;52.076;5.264;2023-05-21T01:49:48;101827.0;;;16.8;59.71
67430;BME280;54298;52.076;5.264;2023-05-21T01:51:25;101824.0;;;16.84;59.86
67430;BME280;54298;52.076;5.264;2023-05-21T01:53:02;101827.0;;;16.78;59.77
67430;BME280;54298;52.076;5.264;2023-05-21T01:56:14;101825.0;;;16.68;60.09
67430;BME280;54298;52.076;5.264;2023-05-21T01:57:51;101823.0;;;16.78;59.87
67430;BME280;54298;52.076;5.264;2023-05-21T01:59:28;101827.0;;;16.73;60.11
67430;BME280;54298;52.076;5.264;2023-05-21T02:02:41;101827.0;;;16.78;60.11
67430;BME280;54298;52.076;5.264;2023-05-21T02:04:17;101825.0;;;16.73;60.07
67430;BME280;54298;52.076;5.264;2023-05-21T02:05:53;101821.0;;;16.8;60.11
67430;BME280;54298;52.076;5.264;2023-05-21T02:07:30;101818.0;;;16.77;60.23
67430;BME280;54298;52.076;5.264;2023-05-21T02:10:42;101818.0;;;16.56;60.57
67430;BME280;54298;52.076;5.264;2023-05-21T02:12:18;101818.0;;;16.75;60.02
67430;BME280;54298;52.076;5.264;2023-05-21T02:13:55;101817.0;;;16.72;60.31
67430;BME280;54298;52.076;5.264;2023-05-21T02:17:09;101818.0;;;16.72;60.64
67430;BME280;54298;52.076;5.264;2023-05-21T02:18:45;101814.0;;;16.7;60.68
67430;BME280;54298;52.076;5.264;2023-05-21T02:20:21;101816.0;;;16.75;60.5
67430;BME280;54298;52.076;5.264;2023-05-21T02:23:33;101813.0;;;16.52;60.85
67430;BME280;54298;52.076;5.264;2023-05-21T02:25:11;101811.0;;;16.5;61.01
67430;BME280;54298;52.076;5.264;2023-05-21T02:26:48;101812.0;;;16.55;60.97
67430;BME280;54298;52.076;5.264;2023-05-21T02:28:24;101814.0;;;16.54;61.29
67430;BME280;54298;52.076;5.264;2023-05-21T02:31:37;101811.0;;;16.59;61.05
67430;BME280;54298;52.076;5.264;2023-05-21T02:33:15;101811.0;;;16.47;61.27
67430;BME280;54298;52.076;5.264;2023-05-21T02:34:51;101817.0;;;16.64;60.9
67430;BME280;54298;52.076;5.264;2023-05-21T02:38:03;101819.0;;;16.63;61.04
67430;BME280;54298;52.076;5.264;2023-05-21T02:39:39;101816.0;;;16.52;61.57
67430;BME280;54298;52.076;5.264;2023-05-21T02:41:16;101820.0;;;16.54;61.37
67430;BME280;54298;52.076;5.264;2023-05-21T02:44:28;101819.0;;;16.55;61.21
67430;BME280;54298;52.076;5.264;2023-05-21T02:46:05;101814.0;;;16.52;61.57
67430;BME280;54298;52.076;5.264;2023-05-21T02:47:41;101817.0;;;16.38;61.99
67430;BME280;54298;52.076;5.264;2023-05-21T02:49:17;101818.0;;;16.48;61.8
67430;BME280;54298;52.076;5.264;2023-05-21T02:52:30;101816.0;;;16.55;61.87
67430;BME280;54298;52.076;5.264;2023-05-21T02:54:06;101816.0;;;16.53;62.01
67430;BME280;54298;52.076;5.264;2023-05-21T02:55:42;101817.0;;;16.61;61.85
67430;BME280;54298;52.076;5.264;2023-05-21T02:58:54;101820.0;;;16.55;61.95
67430;BME280;54298;52.076;5.264;2023-05-21T03:00:31;101812.0;;;16.54;62.05
67430;BME280;54298;52.076;5.264;2023-05-21T03:02:07;101813.0;;;16.63;61.91
67430;BME280;54298;52.076;5.264;2023-05-21T03:05:19;101813.0;;;16.53;62.31
67430;BME280;54298;52.076;5.264;2023-05-21T03:06:56;101814.0;;;16.52;62.6
67430;BME280;54298;52.076;5.264;2023-05-21T03:08:32;101811.0;;;16.45;62.8
67430;BME280;54298;52.076;5.264;2023-05-21T03:10:08;101814.0;;;16.41;63.1
67430;BME280;54298;52.076;5.264;2023-05-21T03:13:21;101816.0;;;16.27;63.62
67430;BME280;54298;52.076;5.264;2023-05-21T03:14:57;101816.0;;;16.4;63.31
67430;BME280;54298;52.076;5.264;2023-05-21T03:16:34;101817.0;;;16.43;63.4
67430;BME280;54298;52.076;5.264;2023-05-21T03:19:46;101815.0;;;16.39;63.7
67430;BME280;54298;52.076;5.264;2023-05-21T03:21:22;101810.0;;;16.52;63.3
67430;BME280;54298;52.076;5.264;2023-05-21T03:22:58;101806.0;;;16.34;63.71
67430;BME280;54298;52.076;5.264;2023-05-21T03:26:11;101805.0;;;16.41;63.66
67430;BME280;54298;52.076;5.264;2023-05-21T03:27:47;101801.0;;;16.32;64.11
67430;BME280;54298;52.076;5.264;2023-05-21T03:29:23;101798.0;;;16.36;64.03
67430;BME280;54298;52.076;5.264;2023-05-21T03:32:36;101791.0;;;16.38;63.97
67430;BME280;54298;52.076;5.264;2023-05-21T03:34:13;101791.0;;;16.43;63.95
67430;BME280;54298;52.076;5.264;2023-05-21T03:35:49;101795.0;;;16.18;64.67
67430;BME280;54298;52.076;5.264;2023-05-21T03:37:25;101792.0;;;16.21;64.83
67430;BME280;54298;52.076;5.264;2023-05-21T03:40:37;101793.0;;;16.22;64.69
67430;BME280;54298;52.076;5.264;2023-05-21T03:42:14;101795.0;;;16.13;65.16
67430;BME280;54298;52.076;5.264;2023-05-21T03:43:50;101791.0;;;16.21;64.86
67430;BME280;54298;52.076;5.264;2023-05-21T03:47:02;101791.0;;;16.2;64.91
67430;BME280;54298;52.076;5.264;2023-05-21T03:48:38;101791.0;;;16.21;64.92
67430;BME280;54298;52.076;5.264;2023-05-21T03:50:15;101788.0;;;16.11;65.22
67430;BME280;54298;52.076;5.264;2023-05-21T03:53:27;101791.0;;;16.14;65.39
67430;BME280;54298;52.076;5.264;2023-05-21T03:55:04;101788.0;;;16.12;65.48
67430;BME280;54298;52.076;5.264;2023-05-21T03:56:40;101788.0;;;16.0;65.77
67430;BME280;54298;52.076;5.264;2023-05-21T03:58:17;101788.0;;;16.04;65.83
67430;BME280;54298;52.076;5.264;2023-05-21T04:01:29;101788.0;;;16.12;65.58
67430;BME280;54298;52.076;5.264;2023-05-21T04:03:05;101786.0;;;16.12;65.72
67430;BME280;54298;52.076;5.264;2023-05-21T04:04:41;101788.0;;;16.21;65.6
67430;BME280;54298;52.076;5.264;2023-05-21T04:07:54;101783.0;;;16.12;66.05
67430;BME280;54298;52.076;5.264;2023-05-21T04:09:30;101786.0;;;15.92;66.37
67430;BME280;54298;52.076;5.264;2023-05-21T04:11:06;101785.0;;;16.0;66.24
67430;BME280;54298;52.076;5.264;2023-05-21T04:14:18;101788.0;;;16.11;66.13
67430;BME280;54298;52.076;5.264;2023-05-21T04:15:55;101789.0;;;16.11;66.34
67430;BME280;54298;52.076;5.264;2023-05-21T04:17:31;101792.0;;;16.04;66.19
67430;BME280;54298;52.076;5.264;2023-05-21T04:20:43;101793.0;;;15.97;66.72
67430;BME280;54298;52.076;5.264;2023-05-21T04:22:20;101786.0;;;15.91;66.92
67430;BME280;54298;52.076;5.264;2023-05-21T04:23:56;101791.0;;;15.95;66.63
67430;BME280;54298;52.076;5.264;2023-05-21T04:25:32;101795.0;;;16.06;66.61
67430;BME280;54298;52.076;5.264;2023-05-21T04:28:44;101794.0;;;16.13;66.72
67430;BME280;54298;52.076;5.264;2023-05-21T04:30:20;101795.0;;;16.05;66.86
67430;BME280;54298;52.076;5.264;2023-05-21T04:31:57;101789.0;;;15.91;67.16
67430;BME280;54298;52.076;5.264;2023-05-21T04:35:09;101787.0;;;15.89;67.28
67430;BME280;54298;52.076;5.264;2023-05-21T04:36:45;101796.0;;;15.82;67.53
67430;BME280;54298;52.076;5.264;2023-05-21T04:38:22;101800.0;;;15.94;67.3
67430;BME280;54298;52.076;5.264;2023-05-21T04:41:36;101802.0;;;15.85;67.84
67430;BME280;54298;52.076;5.264;2023-05-21T04:43:12;101800.0;;;15.97;67.5
67430;BME280;54298;52.076;5.264;2023-05-21T04:44:49;101798.0;;;15.95;67.72
67430;BME280;54298;52.076;5.264;2023-05-21T04:46:25;101800.0;;;15.79;67.95
67430;BME280;54298;52.076;5.264;2023-05-21T04:49:38;101800.0;;;15.89;67.77
67430;BME280;54298;52.076;5.264;2023-05-21T04:51:14;101797.0;;;15.76;68.39
67430;BME280;54298;52.076;5.264;2023-05-21T04:52:50;101798.0;;;15.94;67.99
67430;BME280;54298;52.076;5.264;2023-05-21T04:56:04;101799.0;;;15.76;68.56
67430;BME280;54298;52.076;5.264;2023-05-21T04:57:41;101796.0;;;15.83;68.44
67430;BME280;54298;52.076;5.264;2023-05-21T04:59:17;101794.0;;;15.87;68.49
67430;BME280;54298;52.076;5.264;2023-05-21T05:02:29;101796.0;;;15.76;69.02
67430;BME280;54298;52.076;5.264;2023-05-21T05:04:05;101798.0;;;15.79;68.74
67430;BME280;54298;52.076;5.264;2023-05-21T05:05:43;101801.0;;;15.95;68.28
67430;BME280;54298;52.076;5.264;2023-05-21T05:07:19;101800.0;;;15.87;68.88
67430;BME280;54298;52.076;5.264;2023-05-21T05:10:31;101806.0;;;15.7;69.39
67430;BME280;54298;52.076;5.264;2023-05-21T05:12:07;101803.0;;;15.87;68.95
67430;BME280;54298;52.076;5.264;2023-05-21T05:16:56;101801.0;;;15.96;68.94
67430;BME280;54298;52.076;5.264;2023-05-21T05:18:33;101798.0;;;16.06;68.56
67430;BME280;54298;52.076;5.264;2023-05-21T05:20:10;101800.0;;;15.88;68.97
67430;BME280;54298;52.076;5.264;2023-05-21T05:23:23;101797.0;;;16.0;68.88
67430;BME280;54298;52.076;5.264;2023-05-21T05:24:59;101805.0;;;15.9;69.22
67430;BME280;54298;52.076;5.264;2023-05-21T05:26:36;101806.0;;;16.03;68.83
67430;BME280;54298;52.076;5.264;2023-05-21T05:28:12;101798.0;;;15.93;69.0
67430;BME280;54298;52.076;5.264;2023-05-21T05:31:25;101802.0;;;15.91;69.05
67430;BME280;54298;52.076;5.264;2023-05-21T05:33:01;101801.0;;;15.94;69.05
67430;BME280;54298;52.076;5.264;2023-05-21T05:34:37;101801.0;;;15.87;69.39
67430;BME280;54298;52.076;5.264;2023-05-21T05:37:49;101795.0;;;15.97;69.2
67430;BME280;54298;52.076;5.264;2023-05-21T05:39:25;101798.0;;;15.92;69.45
67430;BME280;54298;52.076;5.264;2023-05-21T05:41:02;101800.0;;;15.96;69.55
67430;BME280;54298;52.076;5.264;2023-05-21T05:44:14;101795.0;;;15.9;69.73
67430;BME280;54298;52.076;5.264;2023-05-21T05:45:50;101799.0;;;15.8;70.17
67430;BME280;54298;52.076;5.264;2023-05-21T05:47:26;101794.0;;;15.81;70.2
67430;BME280;54298;52.076;5.264;2023-05-21T05:50:39;101800.0;;;15.9;70.14
67430;BME280;54298;52.076;5.264;2023-05-21T05:52:15;101796.0;;;15.99;69.92
67430;BME280;54298;52.076;5.264;2023-05-21T05:53:51;101797.0;;;15.83;70.11
67430;BME280;54298;52.076;5.264;2023-05-21T05:55:27;101794.0;;;15.76;70.62
67430;BME280;54298;52.076;5.264;2023-05-21T05:58:41;101789.0;;;15.65;70.88
67430;BME280;54298;52.076;5.264;2023-05-21T06:00:17;101785.0;;;15.88;70.48
67430;BME280;54298;52.076;5.264;2023-05-21T06:01:53;101791.0;;;16.02;70.16
67430;BME280;54298;52.076;5.264;2023-05-21T06:05:06;101788.0;;;16.02;70.19
67430;BME280;54298;52.076;5.264;2023-05-21T06:06:43;101792.0;;;16.13;70.08
67430;BME280;54298;52.076;5.264;2023-05-21T06:08:19;101792.0;;;16.07;70.05
67430;BME280;54298;52.076;5.264;2023-05-21T06:11:31;101787.0;;;16.21;69.61
67430;BME280;54298;52.076;5.264;2023-05-21T06:13:07;101782.0;;;16.21;69.48
67430;BME280;54298;52.076;5.264;2023-05-21T06:14:43;101782.0;;;16.32;69.37
67430;BME280;54298;52.076;5.264;2023-05-21T06:16:20;101783.0;;;16.34;69.06
67430;BME280;54298;52.076;5.264;2023-05-21T06:19:32;101781.0;;;16.41;69.06
67430;BME280;54298;52.076;5.264;2023-05-21T06:21:08;101780.0;;;16.16;69.94
67430;BME280;54298;52.076;5.264;2023-05-21T06:22:44;101781.0;;;16.22;69.91
67430;BME280;54298;52.076;5.264;2023-05-21T06:25:57;101773.0;;;16.43;69.09
67430;BME280;54298;52.076;5.264;2023-05-21T06:27:33;101778.0;;;16.43;69.27
67430;BME280;54298;52.076;5.264;2023-05-21T06:29:09;101782.0;;;16.38;69.34
67430;BME280;54298;52.076;5.264;2023-05-21T06:32:21;101782.0;;;16.37;69.02
67430;BME280;54298;52.076;5.264;2023-05-21T06:34:00;101777.0;;;16.5;68.77
67430;BME280;54298;52.076;5.264;2023-05-21T06:35:36;101781.0;;;16.62;68.72
67430;BME280;54298;52.076;5.264;2023-05-21T06:37:12;101781.0;;;16.79;68.08
67430;BME280;54298;52.076;5.264;2023-05-21T06:40:24;101778.0;;;16.75;67.59
67430;BME280;54298;52.076;5.264;2023-05-21T06:42:01;101768.0;;;16.75;67.47
67430;BME280;54298;52.076;5.264;2023-05-21T06:43:37;101780.0;;;16.93;67.13
67430;BME280;54298;52.076;5.264;2023-05-21T06:46:49;101778.0;;;16.82;67.47
67430;BME280;54298;52.076;5.264;2023-05-21T06:48:26;101778.0;;;16.7;67.86
67430;BME280;54298;52.076;5.264;2023-05-21T06:50:03;101783.0;;;17.0;67.56
67430;BME280;54298;52.076;5.264;2023-05-21T06:53:16;101782.0;;;16.93;67.52
67430;BME280;54298;52.076;5.264;2023-05-21T06:54:53;101777.0;;;16.86;67.37
67430;BME280;54298;52.076;5.264;2023-05-21T06:56:29;101772.0;;;16.84;67.23
67430;BME280;54298;52.076;5.264;2023-05-21T06:59:42;101775.0;;;16.95;67.33
67430;BME280;54298;52.076;5.264;2023-05-21T07:01:18;101773.0;;;16.88;67.25
67430;BME280;54298;52.076;5.264;2023-05-21T07:02:54;101778.0;;;17.06;66.88
67430;BME280;54298;52.076;5.264;2023-05-21T07:04:30;101768.0;;;17.11;66.97
67430;BME280;54298;52.076;5.264;2023-05-21T07:07:43;101768.0;;;17.03;66.78
67430;BME280;54298;52.076;5.264;2023-05-21T07:09:19;101767.0;;;17.05;66.91
67430;BME280;54298;52.076;5.264;2023-05-21T07:10:55;101769.0;;;17.21;66.58
67430;BME280;54298;52.076;5.264;2023-05-21T07:14:07;101770.0;;;17.13;66.39
67430;BME280;54298;52.076;5.264;2023-05-21T07:15:43;101768.0;;;17.36;65.91
67430;BME280;54298;52.076;5.264;2023-05-21T07:17:20;101768.0;;;17.43;65.66
67430;BME280;54298;52.076;5.264;2023-05-21T07:20:32;101777.0;;;17.36;66.52
67430;BME280;54298;52.076;5.264;2023-05-21T07:22:08;101774.0;;;17.13;66.74
67430;BME280;54298;52.076;5.264;2023-05-21T07:23:44;101783.0;;;17.25;66.41
67430;BME280;54298;52.076;5.264;2023-05-21T07:25:22;101781.0;;;17.02;66.97
67430;BME280;54298;52.076;5.264;2023-05-21T07:28:35;101778.0;;;17.27;66.47
67430;BME280;54298;52.076;5.264;2023-05-21T07:30:12;101784.0;;;16.97;67.3
67430;BME280;54298;52.076;5.264;2023-05-21T07:31:49;101780.0;;;17.27;66.1
67430;BME280;54298;52.076;5.264;2023-05-21T07:35:04;101776.0;;;17.34;66.64
67430;BME280;54298;52.076;5.264;2023-05-21T07:36:41;101778.0;;;17.45;66.56
67430;BME280;54298;52.076;5.264;2023-05-21T07:38:17;101780.0;;;17.54;66.3
67430;BME280;54298;52.076;5.264;2023-05-21T07:41:32;101780.0;;;17.66;66.11
67430;BME280;54298;52.076;5.264;2023-05-21T07:43:10;101780.0;;;17.7;65.87
67430;BME280;54298;52.076;5.264;2023-05-21T07:44:47;101777.0;;;17.7;65.77
67430;BME280;54298;52.076;5.264;2023-05-21T07:46:23;101781.0;;;17.86;64.8
67430;BME280;54298;52.076;5.264;2023-05-21T07:49:35;101782.0;;;17.91;64.87
67430;BME280;54298;52.076;5.264;2023-05-21T07:51:11;101776.0;;;17.97;64.52
67430;BME280;54298;52.076;5.264;2023-05-21T07:52:48;101776.0;;;17.91;64.88
67430;BME280;54298;52.076;5.264;2023-05-21T07:56:00;101776.0;;;17.86;64.58
67430;BME280;54298;52.076;5.264;2023-05-21T07:57:36;101771.0;;;17.93;64.28
67430;BME280;54298;52.076;5.264;2023-05-21T07:59:13;101762.0;;;17.75;64.35
67430;BME280;54298;52.076;5.264;2023-05-21T08:02:27;101761.0;;;17.88;64.36
67430;BME280;54298;52.076;5.264;2023-05-21T08:04:03;101757.0;;;18.0;64.27
67430;BME280;54298;52.076;5.264;2023-05-21T08:05:39;101762.0;;;18.25;64.0
67430;BME280;54298;52.076;5.264;2023-05-21T08:10:29;101756.0;;;18.21;63.12
67430;BME280;54298;52.076;5.264;2023-05-21T08:12:06;101760.0;;;18.2;63.39
67430;BME280;54298;52.076;5.264;2023-05-21T08:13:42;101745.0;;;17.93;63.98
67430;BME280;54298;52.076;5.264;2023-05-21T08:16:55;101749.0;;;18.22;63.81
67430;BME280;54298;52.076;5.264;2023-05-21T08:18:31;101745.0;;;18.34;63.61
67430;BME280;54298;52.076;5.264;2023-05-21T08:20:08;101744.0;;;18.27;63.36
67430;BME280;54298;52.076;5.264;2023-05-21T08:23:20;101735.0;;;18.46;63.37
67430;BME280;54298;52.076;5.264;2023-05-21T08:24:57;101736.0;;;18.41;63.36
67430;BME280;54298;52.076;5.264;2023-05-21T08:26:33;101740.0;;;18.55;63.12
67430;BME280;54298;52.076;5.264;2023-05-21T08:28:09;101745.0;;;18.61;62.6
67430;BME280;54298;52.076;5.264;2023-05-21T08:31:21;101745.0;;;18.75;62.48
67430;BME280;54298;52.076;5.264;2023-05-21T08:32:57;101743.0;;;18.62;62.34
67430;BME280;54298;52.076;5.264;2023-05-21T08:34:34;101737.0;;;18.91;62.12
67430;BME280;54298;52.076;5.264;2023-05-21T08:37:46;101742.0;;;19.02;62.11
67430;BME280;54298;52.076;5.264;2023-05-21T08:39:22;101743.0;;;19.13;62.33
67430;BME280;54298;52.076;5.264;2023-05-21T08:40:58;101744.0;;;18.95;62.28
67430;BME280;54298;52.076;5.264;2023-05-21T08:44:19;101743.0;;;19.02;61.58
67430;BME280;54298;52.076;5.264;2023-05-21T08:45:59;101751.0;;;19.18;61.06
67430;BME280;54298;52.076;5.264;2023-05-21T08:47:40;101750.0;;;19.16;61.1
67430;BME280;54298;52.076;5.264;2023-05-21T08:49:20;101749.0;;;19.23;61.28
67430;BME280;54298;52.076;5.264;2023-05-21T08:52:39;101746.0;;;19.07;61.36
67430;BME280;54298;52.076;5.264;2023-05-21T08:54:16;101746.0;;;19.11;61.14
67430;BME280;54298;52.076;5.264;2023-05-21T08:55:53;101743.0;;;18.97;61.74
67430;BME280;54298;52.076;5.264;2023-05-21T08:57:30;101748.0;;;19.21;61.07
67430;BME280;54298;52.076;5.264;2023-05-21T09:00:43;101755.0;;;19.37;61.52
67430;BME280;54298;52.076;5.264;2023-05-21T09:02:20;101742.0;;;19.11;60.81
67430;BME280;54298;52.076;5.264;2023-05-21T09:03:58;101751.0;;;19.31;60.8
67430;BME280;54298;52.076;5.264;2023-05-21T09:07:15;101752.0;;;19.41;61.0
67430;BME280;54298;52.076;5.264;2023-05-21T09:08:57;101746.0;;;19.22;61.2
67430;BME280;54298;52.076;5.264;2023-05-21T09:10:40;101742.0;;;19.34;60.92
67430;BME280;54298;52.076;5.264;2023-05-21T09:12:21;101739.0;;;19.23;60.88
67430;BME280;54298;52.076;5.264;2023-05-21T09:15:35;101730.0;;;19.48;60.67
67430;BME280;54298;52.076;5.264;2023-05-21T09:17:12;101736.0;;;19.53;60.5
67430;BME280;54298;52.076;5.264;2023-05-21T09:18:48;101726.0;;;19.68;60.3
67430;BME280;54298;52.076;5.264;2023-05-21T09:20:27;101730.0;;;19.75;59.56
67430;BME280;54298;52.076;5.264;2023-05-21T09:23:40;101739.0;;;19.59;59.33
67430;BME280;54298;52.076;5.264;2023-05-21T09:25:19;101735.0;;;19.5;59.45
67430;BME280;54298;52.076;5.264;2023-05-21T09:26:59;101731.0;;;19.72;59.79
67430;BME280;54298;52.076;5.264;2023-05-21T09:30:13;101732.0;;;19.8;59.95
67430;BME280;54298;52.076;5.264;2023-05-21T09:31:51;101727.0;;;19.96;59.4
67430;BME280;54298;52.076;5.264;2023-05-21T09:33:27;101724.0;;;20.03;58.93
67430;BME280;54298;52.076;5.264;2023-05-21T09:35:06;101733.0;;;19.66;58.74
67430;BME280;54298;52.076;5.264;2023-05-21T09:38:21;101732.0;;;19.57;58.98
67430;BME280;54298;52.076;5.264;2023-05-21T09:39:58;101724.0;;;19.81;59.09
67430;BME280;54298;52.076;5.264;2023-05-21T09:41:35;101723.0;;;19.78;58.85
67430;BME280;54298;52.076;5.264;2023-05-21T09:44:49;101731.0;;;19.62;59.06
67430;BME280;54298;52.076;5.264;2023-05-21T09:46:26;101735.0;;;19.52;59.08
67430;BME280;54298;52.076;5.264;2023-05-21T09:48:02;101726.0;;;19.8;58.99
67430;BME280;54298;52.076;5.264;2023-05-21T09:51:19;101710.0;;;19.93;58.53
67430;BME280;54298;52.076;5.264;2023-05-21T09:52:55;101711.0;;;20.0;58.87
67430;BME280;54298;52.076;5.264;2023-05-21T09:54:33;101703.0;;;20.12;58.94
67430;BME280;54298;52.076;5.264;2023-05-21T09:56:09;101700.0;;;20.23;58.4
67430;BME280;54298;52.076;5.264;2023-05-21T09:59:24;101699.0;;;20.41;58.05
67430;BME280;54298;52.076;5.264;2023-05-21T10:01:10;101702.0;;;20.37;57.71
67430;BME280;54298;52.076;5.264;2023-05-21T10:02:49;101702.0;;;20.53;56.75
67430;BME280;54298;52.076;5.264;2023-05-21T10:04:29;101700.0;;;20.39;57.01
67430;BME280;54298;52.076;5.264;2023-05-21T10:07:47;101697.0;;;20.57;57.37
67430;BME280;54298;52.076;5.264;2023-05-21T10:09:25;101702.0;;;20.73;56.5
67430;BME280;54298;52.076;5.264;2023-05-21T10:11:05;101700.0;;;20.45;56.98
67430;BME280;54298;52.076;5.264;2023-05-21T10:12:43;101698.0;;;20.45;56.99
67430;BME280;54298;52.076;5.264;2023-05-21T10:16:03;101699.0;;;20.48;57.35
67430;BME280;54298;52.076;5.264;2023-05-21T10:17:41;101689.0;;;20.73;56.82
67430;BME280;54298;52.076;5.264;2023-05-21T10:19:18;101680.0;;;20.84;56.42
67430;BME280;54298;52.076;5.264;2023-05-21T10:22:34;101692.0;;;20.77;56.27
67430;BME280;54298;52.076;5.264;2023-05-21T10:24:12;101691.0;;;20.67;56.19
67430;BME280;54298;52.076;5.264;2023-05-21T10:25:50;101695.0;;;20.74;55.94
67430;BME280;54298;52.076;5.264;2023-05-21T10:27:28;101685.0;;;20.67;56.04
67430;BME280;54298;52.076;5.264;2023-05-21T10:30:44;101685.0;;;20.65;56.88
67430;BME280;54298;52.076;5.264;2023-05-21T10:32:22;101687.0;;;20.8;55.8
67430;BME280;54298;52.076;5.264;2023-05-21T10:33:59;101686.0;;;21.03;56.23
67430;BME280;54298;52.076;5.264;2023-05-21T10:37:15;101684.0;;;20.95;54.9
67430;BME280;54298;52.076;5.264;2023-05-21T10:38:52;101688.0;;;20.96;55.26
67430;BME280;54298;52.076;5.264;2023-05-21T10:40:29;101687.0;;;21.0;56.0
67430;BME280;54298;52.076;5.264;2023-05-21T10:42:15;101678.0;;;21.04;55.58
67430;BME280;54298;52.076;5.264;2023-05-21T10:46:08;101673.0;;;21.23;55.55
67430;BME280;54298;52.076;5.264;2023-05-21T10:48:01;101674.0;;;21.32;55.96
67430;BME280;54298;52.076;5.264;2023-05-21T10:49:54;101676.0;;;21.28;55.36
67430;BME280;54298;52.076;5.264;2023-05-21T10:51:44;101667.0;;;21.46;55.46
67430;BME280;54298;52.076;5.264;2023-05-21T10:53:32;101670.0;;;21.72;55.05
67430;BME280;54298;52.076;5.264;2023-05-21T10:55:26;101668.0;;;21.73;54.09
67430;BME280;54298;52.076;5.264;2023-05-21T10:57:17;101667.0;;;21.82;54.67
67430;BME280;54298;52.076;5.264;2023-05-21T10:59:10;101680.0;;;21.75;53.99
67430;BME280;54298;52.076;5.264;2023-05-21T11:00:56;101667.0;;;21.66;54.06
67430;BME280;54298;52.076;5.264;2023-05-21T11:04:10;101671.0;;;21.7;53.86
67430;BME280;54298;52.076;5.264;2023-05-21T11:05:51;101676.0;;;21.57;54.71
67430;BME280;54298;52.076;5.264;2023-05-21T11:08:01;101675.0;;;21.47;54.5
67430;BME280;54298;52.076;5.264;2023-05-21T11:09:37;101670.0;;;21.71;53.88
67430;BME280;54298;52.076;5.264;2023-05-21T11:13:15;101671.0;;;21.77;53.67
67430;BME280;54298;52.076;5.264;2023-05-21T11:14:55;101673.0;;;21.84;53.68